Russell Municipal Airport
KRSL : now visible

Airfield :











YOU CAN JOIN US ON...

 
LOGIN :

Register | Disclaimer

   EN    FR    IT 

 









Legend :    VFR   Marginal VFR   IFR   Intensive IFR   Very Intensive IFR
Visi :
Ceiling :
>= 8 km
>= 3000ft
5 to 8 km
1000 to 3000 ft
1500m to 5 km
500 to 1000 ft
800 to 1500m
200 to 500 ft
< 800m
< 200 ft
Symbols :   Thunderstorms  Fog  Heavy snow  Heavy precipitations  Wind > 20 kt






- Airport Elevation : 1862 ft


KRSL - Russell Municipal

CURRENT METAR :
  • 041553Z AUTO 22005KT 10SM CLR 01/M09 A3017 RMK AO2 SLP233 T00061094

EXPIRED METARs :
  • 041453Z AUTO 24004KT 10SM CLR M02/M10 A3017 RMK AO2 SLP236 T10171100 56008
  • 041353Z AUTO 21006KT 10SM CLR M03/M11 A3018 RMK AO2 SLP239 T10331106

TAF KRSL
Valid from the 04 at 12:00 until the 05 at 12:00 UTC


041134Z 0412/0512 23005KT P6SM BKN250
FM050100 17007KT P6SM BKN250
KZKC FIR / North America



MET'MAP, your aeronautical weather chart ! - Copyright ORBIFLY December 2007 - Disclaimer

ORBIFLY MET'MAP TEAM :

Programming & Development : Alexandra Zaïnal
Original concept : Baudouin d'Aumeries
Technical & hardware support : Manuel Goepfert
Assistance : Marc-Olivier Méhu




SOURCES & CREDITS :

   NOAA       Earth
Advisory